Time;durP1;ratioP1;P1;durP2;ratioP2;P2;SDS_P1;SDS_P2;PMS_P1;PMS_P2;Temp;Humidity;BMP_temperature;BMP_pressure;BME280_temperature;BME280_humidity;BME280_pressure;Samples;Min_cycle;Max_cycle;Signal;HPM_P1;HPM_P2
2023/09/25 00:00:18;;;;;;;4.33;2.50;;;;;;;;;;5040842;28;20188;-76
2023/09/25 00:02:44;;;;;;;4.10;2.97;;;;;;;;;;5018855;28;20199;-76
2023/09/25 00:05:10;;;;;;;6.27;2.93;;;;;;;;;;5018626;28;20243;-76
2023/09/25 00:07:36;;;;;;;4.27;2.70;;;;;;;;;;5018828;28;20196;-75
2023/09/25 00:10:02;;;;;;;5.70;2.60;;;;;;;;;;5034877;28;20179;-75
2023/09/25 00:12:28;;;;;;;5.80;2.77;;;;;;;;;;5034805;28;20238;-76
2023/09/25 00:14:54;;;;;;;4.63;2.90;;;;;;;;;;5018380;28;20192;-77
2023/09/25 00:17:21;;;;;;;3.80;2.80;;;;;;;;;;5018078;28;20207;-77
2023/09/25 00:19:47;;;;;;;6.23;2.70;;;;;;;;;;5028909;28;20188;-77
2023/09/25 00:22:13;;;;;;;3.13;2.47;;;;;;;;;;5051616;28;20176;-77
2023/09/25 00:24:40;;;;;;;5.90;3.07;;;;;;;;;;5040146;28;20215;-77
2023/09/25 00:27:06;;;;;;;4.70;2.90;;;;;;;;;;5039239;28;20222;-77
2023/09/25 00:29:32;;;;;;;7.43;2.80;;;;;;;;;;5037343;28;20192;-77
2023/09/25 00:31:58;;;;;;;4.30;2.73;;;;;;;;;;5053614;28;20184;-77
2023/09/25 00:34:24;;;;;;;3.10;2.60;;;;;;;;;;5022374;28;20195;-78
2023/09/25 00:36:50;;;;;;;5.10;2.70;;;;;;;;;;5037399;28;20184;-77
2023/09/25 00:39:16;;;;;;;4.43;2.77;;;;;;;;;;5037344;28;20274;-77
2023/09/25 00:41:42;;;;;;;4.63;3.10;;;;;;;;;;5037651;28;20188;-77
2023/09/25 00:44:08;;;;;;;3.17;2.87;;;;;;;;;;5021135;28;20199;-77
2023/09/25 00:46:34;;;;;;;3.23;2.93;;;;;;;;;;5037152;28;20257;-77
2023/09/25 00:49:01;;;;;;;3.87;2.83;;;;;;;;;;5054902;28;20207;-75
2023/09/25 00:51:27;;;;;;;5.00;2.90;;;;;;;;;;5021649;28;20286;-76
2023/09/25 00:53:53;;;;;;;3.53;2.83;;;;;;;;;;5054692;28;20184;-75
2023/09/25 00:56:19;;;;;;;5.17;2.80;;;;;;;;;;5020697;28;20195;-76
2023/09/25 00:58:46;;;;;;;4.63;2.73;;;;;;;;;;5036970;28;20194;-75
2023/09/25 01:01:12;;;;;;;4.00;2.70;;;;;;;;;;5020548;28;20262;-75
2023/09/25 01:03:38;;;;;;;5.70;3.27;;;;;;;;;;5022858;28;20278;-75
2023/09/25 01:06:05;;;;;;;4.27;2.87;;;;;;;;;;5040686;28;20306;-77
2023/09/25 01:08:32;;;;;;;3.80;2.40;;;;;;;;;;5054889;28;20200;-77
2023/09/25 01:10:59;;;;;;;4.63;2.80;;;;;;;;;;5020577;28;20237;-77
2023/09/25 01:13:25;;;;;;;5.07;3.00;;;;;;;;;;5048586;28;20205;-77
2023/09/25 01:15:51;;;;;;;4.87;2.60;;;;;;;;;;5074347;28;20179;-77
2023/09/25 01:18:17;;;;;;;4.87;2.80;;;;;;;;;;5039941;28;20225;-77
2023/09/25 01:20:43;;;;;;;2.67;2.40;;;;;;;;;;5051239;28;20211;-75
2023/09/25 01:23:09;;;;;;;3.20;2.67;;;;;;;;;;5037268;28;20213;-75
2023/09/25 01:25:35;;;;;;;2.97;2.60;;;;;;;;;;5016858;28;20216;-75
2023/09/25 01:28:03;;;;;;;3.40;2.53;;;;;;;;;;5000676;28;20232;-75
2023/09/25 01:30:32;;;;;;;4.17;2.90;;;;;;;;;;5016934;28;20181;-75
2023/09/25 01:32:58;;;;;;;3.43;2.60;;;;;;;;;;5022340;28;20178;-75
2023/09/25 01:35:26;;;;;;;3.43;2.40;;;;;;;;;;5053930;28;20191;-75
2023/09/25 01:37:55;;;;;;;5.07;2.70;;;;;;;;;;5054392;28;20175;-79
2023/09/25 01:40:21;;;;;;;6.23;2.73;;;;;;;;;;5036893;28;20172;-79
2023/09/25 01:42:48;;;;;;;3.87;2.90;;;;;;;;;;5011295;22;20272;-77
2023/09/25 01:45:16;;;;;;;5.50;2.70;;;;;;;;;;5014856;28;20217;-77
2023/09/25 01:47:48;;;;;;;4.17;2.57;;;;;;;;;;4997798;28;20272;-77
2023/09/25 01:50:14;;;;;;;5.30;3.00;;;;;;;;;;4998360;28;20185;-77
2023/09/25 01:52:40;;;;;;;4.97;3.20;;;;;;;;;;5020178;28;20211;-77
2023/09/25 01:55:06;;;;;;;4.27;2.87;;;;;;;;;;5003570;28;20272;-77
2023/09/25 01:57:34;;;;;;;5.33;2.90;;;;;;;;;;4988167;28;20185;-77
2023/09/25 02:00:00;;;;;;;5.10;2.83;;;;;;;;;;5016218;28;20174;-77
2023/09/25 02:02:26;;;;;;;4.63;2.90;;;;;;;;;;5000010;28;20189;-77
2023/09/25 02:04:52;;;;;;;5.97;3.07;;;;;;;;;;4984060;28;20205;-77
2023/09/25 02:07:18;;;;;;;4.33;2.83;;;;;;;;;;5015095;28;20189;-77
2023/09/25 02:09:48;;;;;;;5.17;3.00;;;;;;;;;;4987217;28;20204;-77
2023/09/25 02:12:14;;;;;;;4.20;2.90;;;;;;;;;;5000237;28;20189;-75
2023/09/25 02:14:40;;;;;;;6.97;2.60;;;;;;;;;;4983910;28;20185;-75
2023/09/25 02:17:06;;;;;;;6.70;2.83;;;;;;;;;;4980634;28;20280;-75
2023/09/25 02:19:32;;;;;;;5.97;3.00;;;;;;;;;;5014528;28;20204;-75
2023/09/25 02:21:58;;;;;;;4.43;2.80;;;;;;;;;;4999727;28;20193;-75
2023/09/25 02:24:24;;;;;;;3.47;2.67;;;;;;;;;;4999998;28;20189;-75
2023/09/25 02:26:50;;;;;;;4.27;3.10;;;;;;;;;;4992724;28;20216;-75
2023/09/25 02:29:16;;;;;;;4.77;3.10;;;;;;;;;;4985163;28;20216;-76
2023/09/25 02:31:42;;;;;;;3.97;2.70;;;;;;;;;;4983643;28;20188;-77
2023/09/25 02:34:14;;;;;;;4.37;3.03;;;;;;;;;;4983495;28;20189;-77
2023/09/25 02:36:40;;;;;;;3.80;3.00;;;;;;;;;;4985395;28;20260;-77
2023/09/25 02:39:06;;;;;;;4.23;3.03;;;;;;;;;;4983303;28;20246;-77
2023/09/25 02:41:32;;;;;;;4.37;3.00;;;;;;;;;;4983375;28;20237;-77
2023/09/25 02:43:58;;;;;;;4.27;3.10;;;;;;;;;;5001936;28;20197;-77
2023/09/25 02:46:24;;;;;;;3.53;3.00;;;;;;;;;;5007681;28;20296;-76
2023/09/25 02:48:50;;;;;;;3.83;3.10;;;;;;;;;;5018686;28;20184;-75
2023/09/25 02:51:16;;;;;;;4.07;3.30;;;;;;;;;;5003477;28;20193;-75
2023/09/25 02:53:42;;;;;;;4.20;3.20;;;;;;;;;;5003198;28;20330;-75
2023/09/25 02:56:08;;;;;;;3.73;3.17;;;;;;;;;;5004676;28;20198;-75
2023/09/25 02:58:34;;;;;;;6.97;3.23;;;;;;;;;;5002823;28;20201;-75
2023/09/25 03:01:00;;;;;;;4.50;3.23;;;;;;;;;;4999066;28;20196;-79
2023/09/25 03:03:29;;;;;;;3.80;3.00;;;;;;;;;;5023189;28;20185;-79
2023/09/25 03:05:55;;;;;;;5.27;3.63;;;;;;;;;;4982862;28;20218;-79
2023/09/25 03:08:21;;;;;;;6.47;3.67;;;;;;;;;;5014416;28;20193;-79
2023/09/25 03:10:47;;;;;;;7.10;3.60;;;;;;;;;;5002051;28;20217;-79
2023/09/25 03:13:13;;;;;;;5.57;3.13;;;;;;;;;;4980283;28;20189;-80
2023/09/25 03:15:39;;;;;;;5.90;3.00;;;;;;;;;;5017036;28;20211;-80
2023/09/25 03:18:05;;;;;;;4.70;3.60;;;;;;;;;;4976096;28;20188;-77
2023/09/25 03:20:31;;;;;;;6.93;3.40;;;;;;;;;;4998791;28;20251;-76
2023/09/25 03:22:57;;;;;;;3.93;3.50;;;;;;;;;;4998582;28;20193;-76
2023/09/25 03:25:23;;;;;;;5.83;3.53;;;;;;;;;;5016621;28;20212;-76
2023/09/25 03:27:50;;;;;;;3.70;3.30;;;;;;;;;;5001855;28;20203;-76
2023/09/25 03:30:16;;;;;;;6.10;3.67;;;;;;;;;;5007041;28;20200;-76
2023/09/25 03:32:44;;;;;;;4.17;3.40;;;;;;;;;;4996059;28;20189;-76
2023/09/25 03:35:10;;;;;;;5.13;3.50;;;;;;;;;;4998432;28;20188;-77
2023/09/25 03:37:36;;;;;;;5.67;3.50;;;;;;;;;;4985044;28;20200;-77
2023/09/25 03:40:10;;;;;;;5.03;3.57;;;;;;;;;;5016306;28;20271;-76
2023/09/25 03:42:36;;;;;;;4.63;3.40;;;;;;;;;;5022435;28;20228;-76
2023/09/25 03:45:02;;;;;;;4.80;3.73;;;;;;;;;;4987327;28;20197;-76
2023/09/25 03:47:28;;;;;;;5.27;3.33;;;;;;;;;;4982603;28;20189;-77
2023/09/25 03:49:54;;;;;;;4.57;3.57;;;;;;;;;;4998734;28;20190;-77
2023/09/25 03:52:20;;;;;;;6.23;3.27;;;;;;;;;;4982997;28;20234;-75
2023/09/25 03:54:46;;;;;;;4.73;3.27;;;;;;;;;;4982383;28;20201;-75
2023/09/25 03:57:13;;;;;;;5.43;3.60;;;;;;;;;;5015625;28;20193;-75
2023/09/25 03:59:38;;;;;;;4.43;3.30;;;;;;;;;;4982756;28;20221;-75
2023/09/25 04:02:04;;;;;;;4.33;3.40;;;;;;;;;;4999650;28;20192;-75
2023/09/25 04:04:31;;;;;;;7.27;3.70;;;;;;;;;;4998292;28;20189;-75
2023/09/25 04:06:57;;;;;;;3.73;3.37;;;;;;;;;;5015441;28;20278;-75
2023/09/25 04:09:23;;;;;;;4.03;3.37;;;;;;;;;;4994406;28;20193;-79
2023/09/25 04:11:49;;;;;;;3.93;3.40;;;;;;;;;;5001857;28;20189;-79
2023/09/25 04:14:15;;;;;;;4.50;3.97;;;;;;;;;;4998150;28;20188;-79
2023/09/25 04:16:41;;;;;;;4.90;3.50;;;;;;;;;;4988101;28;20202;-77
2023/09/25 04:19:07;;;;;;;4.90;3.43;;;;;;;;;;4982198;28;20189;-77
2023/09/25 04:21:33;;;;;;;4.80;3.53;;;;;;;;;;4995338;28;20203;-76
2023/09/25 04:24:03;;;;;;;5.00;3.50;;;;;;;;;;5004044;28;20189;-77
2023/09/25 04:26:29;;;;;;;4.37;3.63;;;;;;;;;;5032281;28;20212;-79
2023/09/25 04:28:55;;;;;;;5.63;3.60;;;;;;;;;;4999819;28;20187;-78
2023/09/25 04:31:21;;;;;;;5.40;3.60;;;;;;;;;;4998521;28;20189;-78
2023/09/25 04:33:47;;;;;;;6.33;3.47;;;;;;;;;;4997744;28;20173;-79
2023/09/25 04:36:13;;;;;;;5.35;3.88;;;;;;;;;;4981801;28;20446;-80
2023/09/25 04:38:39;;;;;;;6.03;4.10;;;;;;;;;;4981931;28;20221;-79
2023/09/25 04:41:05;;;;;;;4.67;3.50;;;;;;;;;;4997804;28;20174;-77
2023/09/25 04:43:32;;;;;;;5.40;3.87;;;;;;;;;;4981710;28;20263;-76
2023/09/25 04:45:58;;;;;;;6.37;3.80;;;;;;;;;;4997319;28;20208;-76
2023/09/25 04:48:24;;;;;;;6.40;4.03;;;;;;;;;;4997346;28;20184;-76
2023/09/25 04:50:51;;;;;;;5.43;3.70;;;;;;;;;;4997209;28;20189;-76
2023/09/25 04:53:21;;;;;;;4.90;3.50;;;;;;;;;;4997404;28;20186;-76
2023/09/25 04:55:47;;;;;;;6.27;3.97;;;;;;;;;;4997736;28;20186;-76
2023/09/25 04:58:13;;;;;;;6.33;4.03;;;;;;;;;;4986082;28;20192;-76
2023/09/25 05:00:41;;;;;;;5.90;4.13;;;;;;;;;;5030310;28;20196;-76
2023/09/25 05:03:07;;;;;;;5.63;3.80;;;;;;;;;;4982459;28;20185;-76
2023/09/25 05:05:33;;;;;;;6.67;3.90;;;;;;;;;;5010465;28;20236;-76
2023/09/25 05:07:59;;;;;;;5.23;3.50;;;;;;;;;;4990993;28;20216;-77
2023/09/25 05:10:27;;;;;;;6.23;3.43;;;;;;;;;;5014411;28;20189;-76
2023/09/25 05:12:53;;;;;;;6.90;3.50;;;;;;;;;;5031287;28;20219;-77
2023/09/25 05:15:19;;;;;;;4.13;2.90;;;;;;;;;;5017098;28;20185;-80
2023/09/25 05:17:46;;;;;;;3.87;2.70;;;;;;;;;;5034965;28;20263;-77
2023/09/25 05:20:15;;;;;;;3.83;2.27;;;;;;;;;;5017154;28;20180;-77
2023/09/25 05:22:49;;;;;;;5.07;3.00;;;;;;;;;;5017784;28;20278;-77
2023/09/25 05:25:15;;;;;;;4.13;2.60;;;;;;;;;;5033622;28;20204;-78
2023/09/25 05:27:45;;;;;;;4.23;2.50;;;;;;;;;;5016791;28;20176;-77
2023/09/25 05:30:12;;;;;;;6.63;2.90;;;;;;;;;;5034479;28;20200;-78
2023/09/25 05:32:43;;;;;;;4.10;2.70;;;;;;;;;;5016786;28;20227;-78
2023/09/25 05:35:09;;;;;;;4.40;2.70;;;;;;;;;;5034296;28;20215;-78
2023/09/25 05:37:36;;;;;;;4.47;2.73;;;;;;;;;;5016955;28;20187;-78
2023/09/25 05:40:03;;;;;;;8.70;2.90;;;;;;;;;;5000544;28;20180;-78
2023/09/25 05:42:29;;;;;;;3.80;2.40;;;;;;;;;;5016642;28;20247;-78
2023/09/25 05:44:55;;;;;;;3.27;2.50;;;;;;;;;;5000485;28;20203;-78
2023/09/25 05:47:21;;;;;;;5.70;2.77;;;;;;;;;;5001051;28;20373;-78
2023/09/25 05:49:48;;;;;;;4.60;2.70;;;;;;;;;;5034346;28;20181;-78
2023/09/25 05:52:14;;;;;;;3.20;2.70;;;;;;;;;;5000616;28;20260;-78
2023/09/25 05:54:40;;;;;;;3.67;2.47;;;;;;;;;;5000760;28;20188;-78
2023/09/25 05:57:06;;;;;;;4.77;2.80;;;;;;;;;;5017132;28;20183;-78
2023/09/25 05:59:35;;;;;;;6.13;2.80;;;;;;;;;;5000474;28;20184;-78
2023/09/25 06:02:04;;;;;;;3.73;2.33;;;;;;;;;;5016606;28;20276;-78
2023/09/25 06:04:35;;;;;;;2.87;2.50;;;;;;;;;;5016715;28;20199;-76
2023/09/25 06:07:01;;;;;;;3.83;2.60;;;;;;;;;;5016810;28;20208;-76
2023/09/25 06:09:27;;;;;;;5.70;2.37;;;;;;;;;;5033816;28;20284;-76
2023/09/25 06:11:53;;;;;;;3.30;2.67;;;;;;;;;;5034213;28;20180;-76
2023/09/25 06:14:19;;;;;;;4.13;2.80;;;;;;;;;;4994756;28;20183;-76
2023/09/25 06:16:47;;;;;;;3.23;2.70;;;;;;;;;;4994775;28;20181;-76
2023/09/25 06:19:13;;;;;;;5.37;2.90;;;;;;;;;;4994740;28;20218;-76
2023/09/25 06:21:39;;;;;;;5.57;2.70;;;;;;;;;;4977396;28;20185;-76
2023/09/25 06:24:09;;;;;;;3.17;2.53;;;;;;;;;;4977725;28;20201;-75
2023/09/25 06:26:35;;;;;;;6.77;2.90;;;;;;;;;;4978210;28;20220;-76
2023/09/25 06:29:01;;;;;;;3.27;2.60;;;;;;;;;;4994710;28;20305;-76
2023/09/25 06:31:27;;;;;;;3.40;2.77;;;;;;;;;;4977894;28;20232;-76
2023/09/25 06:33:53;;;;;;;5.23;2.43;;;;;;;;;;4977876;28;20190;-76
2023/09/25 06:36:19;;;;;;;5.47;2.80;;;;;;;;;;4979748;28;20213;-76
2023/09/25 06:38:46;;;;;;;3.83;2.27;;;;;;;;;;4986860;28;20221;-74
2023/09/25 06:41:12;;;;;;;3.50;2.50;;;;;;;;;;4981152;28;20190;-75
2023/09/25 06:43:38;;;;;;;4.23;2.90;;;;;;;;;;4981123;28;20213;-78
2023/09/25 06:46:04;;;;;;;4.57;2.73;;;;;;;;;;4996642;28;20214;-78
2023/09/25 06:48:33;;;;;;;4.90;2.60;;;;;;;;;;4997370;28;20273;-79
2023/09/25 06:50:59;;;;;;;6.73;3.03;;;;;;;;;;4997723;28;20186;-79
2023/09/25 06:53:25;;;;;;;6.70;2.73;;;;;;;;;;4980196;28;20182;-79
2023/09/25 06:55:51;;;;;;;4.97;2.40;;;;;;;;;;4980506;28;20186;-76
2023/09/25 06:58:17;;;;;;;5.87;2.60;;;;;;;;;;4980663;28;20221;-76
2023/09/25 07:00:47;;;;;;;6.53;2.80;;;;;;;;;;4980742;28;20178;-76
2023/09/25 07:03:13;;;;;;;4.20;3.03;;;;;;;;;;4980314;28;20186;-76
2023/09/25 07:05:40;;;;;;;4.50;2.80;;;;;;;;;;4997518;28;20201;-76
2023/09/25 07:08:06;;;;;;;4.53;2.73;;;;;;;;;;5005446;28;20289;-76
2023/09/25 07:10:33;;;;;;;3.83;2.83;;;;;;;;;;5007424;28;20178;-76
2023/09/25 07:12:59;;;;;;;4.77;2.40;;;;;;;;;;4999510;28;20177;-77
2023/09/25 07:15:25;;;;;;;5.63;2.70;;;;;;;;;;5017047;28;20181;-76
2023/09/25 07:17:51;;;;;;;7.40;3.03;;;;;;;;;;4983702;28;20188;-77
2023/09/25 07:20:18;;;;;;;3.63;2.87;;;;;;;;;;5017003;28;20240;-76
2023/09/25 07:22:45;;;;;;;4.40;2.60;;;;;;;;;;4999702;28;20180;-79
2023/09/25 07:25:11;;;;;;;2.77;2.50;;;;;;;;;;4983882;28;20276;-79
2023/09/25 07:27:37;;;;;;;3.57;2.77;;;;;;;;;;4985142;28;20190;-76
2023/09/25 07:30:06;;;;;;;3.30;2.30;;;;;;;;;;4991655;28;20189;-76
2023/09/25 07:32:33;;;;;;;5.30;2.40;;;;;;;;;;4999828;28;20181;-76
2023/09/25 07:34:59;;;;;;;2.73;2.53;;;;;;;;;;4983744;28;20177;-77
2023/09/25 07:37:25;;;;;;;2.93;2.47;;;;;;;;;;4999342;28;20269;-77
2023/09/25 07:39:51;;;;;;;5.27;2.40;;;;;;;;;;4999386;28;20177;-77
2023/09/25 07:42:17;;;;;;;3.83;2.40;;;;;;;;;;4982942;28;20244;-77
2023/09/25 07:44:43;;;;;;;3.40;2.40;;;;;;;;;;4999213;28;20215;-77
2023/09/25 07:47:12;;;;;;;2.77;2.33;;;;;;;;;;4997346;28;20217;-77
2023/09/25 07:49:44;;;;;;;3.03;2.30;;;;;;;;;;5016398;28;20203;-77
2023/09/25 07:52:20;;;;;;;2.90;2.20;;;;;;;;;;4983782;28;20181;-77
2023/09/25 07:54:48;;;;;;;5.20;2.90;;;;;;;;;;4983943;28;20184;-77
2023/09/25 07:57:15;;;;;;;3.50;2.60;;;;;;;;;;4998704;28;20181;-77
2023/09/25 07:59:41;;;;;;;4.73;2.60;;;;;;;;;;5016097;28;20188;-77
2023/09/25 08:02:18;;;;;;;3.30;2.60;;;;;;;;;;5016335;28;20169;-79
2023/09/25 08:04:44;;;;;;;4.30;2.40;;;;;;;;;;5016049;28;20192;-79
2023/09/25 08:07:11;;;;;;;3.67;2.63;;;;;;;;;;4982523;28;20225;-79
2023/09/25 08:09:37;;;;;;;5.77;2.30;;;;;;;;;;5016009;28;20176;-79
2023/09/25 08:12:05;;;;;;;2.87;2.37;;;;;;;;;;4998285;28;20220;-79
2023/09/25 08:14:31;;;;;;;3.97;2.20;;;;;;;;;;4998917;28;20188;-79
2023/09/25 08:16:58;;;;;;;5.13;2.53;;;;;;;;;;4998659;28;20220;-79
2023/09/25 08:19:24;;;;;;;5.43;2.10;;;;;;;;;;4996855;28;20211;-76
2023/09/25 08:21:51;;;;;;;4.07;2.37;;;;;;;;;;5012963;28;20216;-76
2023/09/25 08:24:17;;;;;;;2.43;2.10;;;;;;;;;;5013828;28;20190;-76
2023/09/25 08:26:46;;;;;;;3.97;2.53;;;;;;;;;;4995190;28;20205;-76
2023/09/25 08:29:13;;;;;;;3.97;2.50;;;;;;;;;;4995821;28;20182;-76
2023/09/25 08:31:39;;;;;;;3.77;2.10;;;;;;;;;;4998007;28;20323;-76
2023/09/25 08:34:05;;;;;;;4.27;2.30;;;;;;;;;;4997947;28;20181;-75
2023/09/25 08:36:31;;;;;;;4.17;2.43;;;;;;;;;;4983359;28;20188;-74
2023/09/25 08:38:57;;;;;;;2.90;2.30;;;;;;;;;;5018404;28;20185;-75
2023/09/25 08:41:24;;;;;;;5.30;2.30;;;;;;;;;;4991424;28;20197;-75
2023/09/25 08:43:52;;;;;;;5.40;2.40;;;;;;;;;;4995537;28;20181;-76
2023/09/25 08:46:19;;;;;;;4.47;2.20;;;;;;;;;;4988229;28;20221;-76
2023/09/25 08:48:46;;;;;;;3.70;2.20;;;;;;;;;;5013103;28;20235;-77
2023/09/25 08:51:13;;;;;;;4.70;2.20;;;;;;;;;;4999638;28;20196;-75
2023/09/25 08:53:39;;;;;;;3.00;2.30;;;;;;;;;;4995939;28;20177;-75
2023/09/25 08:56:06;;;;;;;5.90;2.50;;;;;;;;;;5014597;28;20173;-75
2023/09/25 08:58:33;;;;;;;3.73;2.27;;;;;;;;;;4980554;28;20194;-75
2023/09/25 09:00:59;;;;;;;4.80;2.53;;;;;;;;;;4978786;28;20193;-75
2023/09/25 09:03:28;;;;;;;4.83;2.37;;;;;;;;;;4978345;28;20280;-75
2023/09/25 09:05:54;;;;;;;4.33;2.30;;;;;;;;;;4978440;28;20221;-75
2023/09/25 09:08:20;;;;;;;2.63;2.00;;;;;;;;;;4978754;28;20225;-80
2023/09/25 09:10:46;;;;;;;3.57;2.17;;;;;;;;;;4978878;28;20182;-80
2023/09/25 09:13:12;;;;;;;5.67;2.20;;;;;;;;;;4979050;28;20221;-80
2023/09/25 09:15:39;;;;;;;2.97;1.93;;;;;;;;;;4990963;28;20189;-80
2023/09/25 09:18:21;;;;;;;7.90;2.13;;;;;;;;;;4981339;28;20189;-80
2023/09/25 09:20:48;;;;;;;3.80;2.10;;;;;;;;;;4983020;28;20192;-80
2023/09/25 09:23:17;;;;;;;3.10;2.20;;;;;;;;;;4997910;28;20189;-79
2023/09/25 09:25:51;;;;;;;3.47;1.77;;;;;;;;;;5014730;28;20268;-76
2023/09/25 09:28:17;;;;;;;3.67;2.00;;;;;;;;;;4981918;28;20213;-76
2023/09/25 09:30:43;;;;;;;2.67;2.00;;;;;;;;;;4982214;28;20185;-77
2023/09/25 09:33:09;;;;;;;3.43;2.30;;;;;;;;;;4997575;28;20196;-77
2023/09/25 09:35:35;;;;;;;5.70;2.10;;;;;;;;;;5015505;28;20180;-77
2023/09/25 09:38:02;;;;;;;2.90;2.13;;;;;;;;;;4997798;28;20212;-77
2023/09/25 09:40:30;;;;;;;4.47;2.23;;;;;;;;;;4998496;28;20185;-77
2023/09/25 09:42:56;;;;;;;4.40;2.17;;;;;;;;;;4998433;28;20225;-77
2023/09/25 09:45:23;;;;;;;3.33;2.27;;;;;;;;;;5014689;28;20204;-77
2023/09/25 09:47:50;;;;;;;4.57;2.23;;;;;;;;;;4981706;28;20208;-80
2023/09/25 09:50:21;;;;;;;5.20;2.40;;;;;;;;;;4978848;28;20200;-81
2023/09/25 09:52:48;;;;;;;5.43;2.20;;;;;;;;;;4978803;28;20181;-77
2023/09/25 09:55:14;;;;;;;3.70;2.10;;;;;;;;;;4999128;28;20187;-77
2023/09/25 09:57:40;;;;;;;3.90;2.00;;;;;;;;;;4997770;28;20257;-77
2023/09/25 10:00:07;;;;;;;5.00;2.77;;;;;;;;;;4995240;28;20174;-77
2023/09/25 10:02:34;;;;;;;4.77;2.60;;;;;;;;;;4994604;28;20212;-77
2023/09/25 10:05:00;;;;;;;3.83;2.40;;;;;;;;;;4996767;28;20272;-77
2023/09/25 10:07:26;;;;;;;3.47;2.40;;;;;;;;;;4996955;28;20343;-77
2023/09/25 10:09:56;;;;;;;5.63;2.23;;;;;;;;;;4996928;28;20268;-77
2023/09/25 10:12:49;;;;;;;4.83;2.10;;;;;;;;;;4999741;28;20193;-77
2023/09/25 10:15:22;;;;;;;3.67;2.47;;;;;;;;;;5018535;28;20180;-77
2023/09/25 10:17:48;;;;;;;4.83;2.63;;;;;;;;;;5018727;28;20249;-76
2023/09/25 10:20:33;;;;;;;4.77;2.57;;;;;;;;;;5001205;28;20324;-77
2023/09/25 10:23:19;;;;;;;3.90;2.63;;;;;;;;;;5000132;28;20213;-77
2023/09/25 10:25:48;;;;;;;3.70;2.53;;;;;;;;;;5000735;28;20201;-77
2023/09/25 10:28:33;;;;;;;3.67;2.33;;;;;;;;;;4999812;28;20189;-82
2023/09/25 10:31:00;;;;;;;5.90;2.50;;;;;;;;;;5018203;28;20173;-78
2023/09/25 10:33:32;;;;;;;4.67;2.33;;;;;;;;;;5014037;28;20186;-77
2023/09/25 10:36:04;;;;;;;3.00;2.50;;;;;;;;;;4999475;28;20276;-77
2023/09/25 10:38:36;;;;;;;3.47;2.50;;;;;;;;;;5020076;28;20248;-78
2023/09/25 10:41:08;;;;;;;5.97;2.63;;;;;;;;;;4996976;28;20193;-77
2023/09/25 10:43:35;;;;;;;5.43;2.60;;;;;;;;;;4998406;28;20182;-77
2023/09/25 10:46:02;;;;;;;4.00;2.30;;;;;;;;;;4980734;28;20213;-78
2023/09/25 10:48:28;;;;;;;5.53;2.50;;;;;;;;;;5002108;28;20189;-78
2023/09/25 10:50:55;;;;;;;3.90;2.67;;;;;;;;;;4996904;28;20201;-78
2023/09/25 10:53:21;;;;;;;3.50;2.40;;;;;;;;;;5012244;28;20188;-78
2023/09/25 10:55:48;;;;;;;3.63;2.70;;;;;;;;;;5008362;28;20201;-76
2023/09/25 10:58:14;;;;;;;5.93;2.70;;;;;;;;;;5017029;28;20184;-76
2023/09/25 11:00:43;;;;;;;3.70;2.60;;;;;;;;;;5016233;28;20188;-76
2023/09/25 11:03:09;;;;;;;6.33;2.70;;;;;;;;;;4984184;28;20186;-76
2023/09/25 11:05:38;;;;;;;3.22;2.45;;;;;;;;;;5017239;28;20212;-77
2023/09/25 11:08:05;;;;;;;4.33;2.50;;;;;;;;;;4988929;28;20182;-77
2023/09/25 11:10:35;;;;;;;3.90;2.33;;;;;;;;;;4997799;28;20182;-77
2023/09/25 11:13:01;;;;;;;5.23;2.93;;;;;;;;;;5013171;28;20181;-81
2023/09/25 11:15:28;;;;;;;3.80;2.77;;;;;;;;;;5013104;28;20213;-81
2023/09/25 11:17:57;;;;;;;4.67;2.53;;;;;;;;;;4997983;28;20229;-81
2023/09/25 11:20:29;;;;;;;3.95;2.35;;;;;;;;;;4997515;28;20189;-79
2023/09/25 11:23:09;;;;;;;4.88;2.30;;;;;;;;;;5011663;28;20208;-79
2023/09/25 11:25:41;;;;;;;4.00;2.50;;;;;;;;;;5012903;28;20363;-79
2023/09/25 11:28:07;;;;;;;3.97;2.50;;;;;;;;;;5012336;28;20194;-79
2023/09/25 11:30:34;;;;;;;3.30;2.70;;;;;;;;;;4996401;28;20178;-79
2023/09/25 11:33:07;;;;;;;4.45;2.70;;;;;;;;;;4980435;28;20280;-79
2023/09/25 11:35:37;;;;;;;5.38;2.92;;;;;;;;;;5012829;28;20181;-79
2023/09/25 11:38:04;;;;;;;4.78;2.65;;;;;;;;;;4997421;28;20269;-76
2023/09/25 11:40:30;;;;;;;4.30;3.05;;;;;;;;;;5012834;28;20269;-76
2023/09/25 11:42:57;;;;;;;4.90;2.83;;;;;;;;;;5011909;28;20234;-76
2023/09/25 11:45:23;;;;;;;5.60;3.00;;;;;;;;;;5012380;28;20182;-76
2023/09/25 11:47:49;;;;;;;6.03;3.28;;;;;;;;;;5012569;28;20249;-77
2023/09/25 11:50:16;;;;;;;4.95;2.90;;;;;;;;;;4996291;28;20178;-76
2023/09/25 11:52:43;;;;;;;3.28;2.80;;;;;;;;;;5012146;28;20217;-76
2023/09/25 11:55:10;;;;;;;3.80;2.78;;;;;;;;;;4979473;28;20265;-79
2023/09/25 11:57:37;;;;;;;4.65;3.25;;;;;;;;;;4997459;28;20198;-79
2023/09/25 12:00:06;;;;;;;4.80;3.10;;;;;;;;;;4996207;28;20412;-76
2023/09/25 12:02:32;;;;;;;4.85;3.13;;;;;;;;;;4977736;28;20420;-77
2023/09/25 12:04:58;;;;;;;3.92;3.30;;;;;;;;;;4979223;28;20181;-76
2023/09/25 12:07:26;;;;;;;4.72;3.05;;;;;;;;;;4996447;28;20206;-77
2023/09/25 12:09:52;;;;;;;6.10;3.00;;;;;;;;;;4978769;28;20181;-77
2023/09/25 12:12:18;;;;;;;4.82;2.78;;;;;;;;;;4979016;28;20183;-75
2023/09/25 12:14:44;;;;;;;5.40;3.20;;;;;;;;;;4978059;28;20448;-75
2023/09/25 12:17:11;;;;;;;5.57;3.25;;;;;;;;;;4979154;28;20429;-75
2023/09/25 12:19:38;;;;;;;4.68;3.00;;;;;;;;;;4981822;28;20212;-75
2023/09/25 12:22:04;;;;;;;6.00;3.40;;;;;;;;;;4981958;28;20437;-75
2023/09/25 12:24:30;;;;;;;3.80;3.10;;;;;;;;;;4981877;28;20422;-75
2023/09/25 12:26:56;;;;;;;6.43;3.60;;;;;;;;;;4981285;28;20489;-75
2023/09/25 12:29:22;;;;;;;7.10;3.70;;;;;;;;;;4997325;28;20410;-75
2023/09/25 12:31:48;;;;;;;3.67;3.10;;;;;;;;;;4998019;28;20446;-75
2023/09/25 12:34:16;;;;;;;6.60;3.67;;;;;;;;;;4997079;28;20415;-75
2023/09/25 12:36:42;;;;;;;6.03;3.40;;;;;;;;;;5014192;28;20493;-75
2023/09/25 12:39:08;;;;;;;4.83;3.20;;;;;;;;;;5014312;28;20426;-75
2023/09/25 12:41:35;;;;;;;5.32;3.35;;;;;;;;;;4997006;28;20485;-75
2023/09/25 12:44:01;;;;;;;7.72;3.22;;;;;;;;;;4997327;28;20419;-76
2023/09/25 12:46:27;;;;;;;4.20;3.05;;;;;;;;;;4996877;28;20438;-76
2023/09/25 12:48:53;;;;;;;6.97;3.03;;;;;;;;;;4980552;28;20438;-76
2023/09/25 12:51:19;;;;;;;4.93;2.78;;;;;;;;;;4980711;28;20456;-76
2023/09/25 12:53:45;;;;;;;6.78;3.30;;;;;;;;;;4981513;28;20407;-76
2023/09/25 12:56:11;;;;;;;5.13;3.17;;;;;;;;;;4980907;28;20418;-76
2023/09/25 12:58:38;;;;;;;5.95;3.20;;;;;;;;;;5015078;28;20504;-76
2023/09/25 13:01:04;;;;;;;5.18;3.08;;;;;;;;;;5015890;28;20195;-76
2023/09/25 13:03:31;;;;;;;6.20;3.22;;;;;;;;;;5015459;28;20181;-76
2023/09/25 13:05:57;;;;;;;3.40;2.72;;;;;;;;;;5015056;28;20197;-77
2023/09/25 13:08:23;;;;;;;5.15;3.13;;;;;;;;;;4998001;28;20200;-77
2023/09/25 13:10:51;;;;;;;4.90;2.92;;;;;;;;;;4998350;28;20173;-76
2023/09/25 13:13:18;;;;;;;5.28;3.00;;;;;;;;;;5015516;28;20173;-76
2023/09/25 13:15:44;;;;;;;3.83;2.92;;;;;;;;;;5015524;28;20173;-76
2023/09/25 13:18:10;;;;;;;3.55;2.58;;;;;;;;;;4981729;28;20212;-77
2023/09/25 13:20:37;;;;;;;5.93;2.67;;;;;;;;;;4981896;28;20188;-76
2023/09/25 13:23:03;;;;;;;4.45;2.72;;;;;;;;;;4997355;28;20181;-76
2023/09/25 13:25:29;;;;;;;4.80;2.80;;;;;;;;;;4981551;28;20261;-75
2023/09/25 13:27:55;;;;;;;4.15;2.90;;;;;;;;;;5015789;28;20201;-75
2023/09/25 13:30:21;;;;;;;3.17;2.75;;;;;;;;;;4981731;28;20185;-75
2023/09/25 13:32:48;;;;;;;3.88;2.78;;;;;;;;;;4997468;28;20241;-75
2023/09/25 13:35:14;;;;;;;5.55;3.10;;;;;;;;;;4981353;28;20240;-76
2023/09/25 13:37:40;;;;;;;3.72;2.55;;;;;;;;;;4997641;28;20270;-76
2023/09/25 13:40:07;;;;;;;3.30;2.70;;;;;;;;;;4980957;28;20426;-76
2023/09/25 13:42:33;;;;;;;5.35;3.00;;;;;;;;;;4996598;28;20438;-78
2023/09/25 13:44:59;;;;;;;4.00;2.78;;;;;;;;;;4997448;28;20177;-79
2023/09/25 13:47:25;;;;;;;5.57;3.28;;;;;;;;;;4984925;28;20457;-79
2023/09/25 13:49:51;;;;;;;3.90;3.00;;;;;;;;;;5018411;28;20419;-77
2023/09/25 13:52:17;;;;;;;4.35;2.85;;;;;;;;;;4984594;28;20479;-76
2023/09/25 13:54:44;;;;;;;4.03;2.75;;;;;;;;;;5000480;28;20468;-76
2023/09/25 13:57:10;;;;;;;4.82;2.95;;;;;;;;;;5020069;23;20476;-76
2023/09/25 13:59:36;;;;;;;4.00;3.00;;;;;;;;;;5003958;28;20426;-76
2023/09/25 14:02:02;;;;;;;4.93;2.85;;;;;;;;;;5003481;28;20181;-76
2023/09/25 14:04:32;;;;;;;5.30;2.90;;;;;;;;;;5019973;28;20536;-76
2023/09/25 14:06:58;;;;;;;4.47;2.92;;;;;;;;;;5021192;28;20440;-76
2023/09/25 14:09:26;;;;;;;5.35;2.97;;;;;;;;;;5020890;28;20416;-76
2023/09/25 14:11:53;;;;;;;3.97;3.00;;;;;;;;;;5004404;28;20418;-76
2023/09/25 14:14:22;;;;;;;5.35;3.17;;;;;;;;;;5004649;28;20267;-76
2023/09/25 14:16:48;;;;;;;3.17;2.80;;;;;;;;;;5038284;28;20172;-77
2023/09/25 14:19:14;;;;;;;5.57;3.08;;;;;;;;;;5020734;28;20290;-75
2023/09/25 14:21:40;;;;;;;5.35;3.00;;;;;;;;;;5019698;28;20513;-76
2023/09/25 14:24:07;;;;;;;4.30;3.00;;;;;;;;;;5038060;28;20185;-76
2023/09/25 14:26:33;;;;;;;5.38;3.00;;;;;;;;;;5002989;28;20429;-76
2023/09/25 14:28:59;;;;;;;5.55;3.03;;;;;;;;;;5020116;28;20199;-76
2023/09/25 14:31:24;;;;;;;7.00;3.13;;;;;;;;;;5004038;28;20072;-76
2023/09/25 14:33:50;;;;;;;6.03;3.13;;;;;;;;;;5019697;28;20176;-77
2023/09/25 14:36:16;;;;;;;4.88;2.70;;;;;;;;;;5003523;28;20208;-76
2023/09/25 14:38:43;;;;;;;5.22;3.08;;;;;;;;;;5002616;28;20223;-76
2023/09/25 14:41:09;;;;;;;6.50;3.35;;;;;;;;;;5001766;28;20456;-77